Time;durP1;ratioP1;P1;durP2;ratioP2;P2;SDS_P1;SDS_P2;PMS_P1;PMS_P2;Temp;Humidity;BMP_temperature;BMP_pressure;BME280_temperature;BME280_humidity;BME280_pressure;Samples;Min_cycle;Max_cycle;Signal;HPM_P1;HPM_P2
2023/06/12 00:01:53;;;;;;;5.23;4.83;;;;;;;;;;5093063;28;20455;-58
2023/06/12 00:04:21;;;;;;;5.73;5.33;;;;;;;;;;5093015;28;20537;-58
2023/06/12 00:06:48;;;;;;;6.60;5.90;;;;;;;;;;5093257;28;20458;-59
2023/06/12 00:09:15;;;;;;;6.10;5.60;;;;;;;;;;5093027;28;20862;-58
2023/06/12 00:11:42;;;;;;;6.13;5.63;;;;;;;;;;5093023;28;20483;-59
2023/06/12 00:14:09;;;;;;;7.10;5.17;;;;;;;;;;5092765;28;20895;-58
2023/06/12 00:16:37;;;;;;;5.87;5.37;;;;;;;;;;5092704;28;20472;-60
2023/06/12 00:19:04;;;;;;;7.93;6.20;;;;;;;;;;5092829;28;20461;-58
2023/06/12 00:21:32;;;;;;;6.13;5.63;;;;;;;;;;5092923;28;20453;-58
2023/06/12 00:24:00;;;;;;;6.90;6.30;;;;;;;;;;5092882;28;20631;-58
2023/06/12 00:26:27;;;;;;;5.80;5.23;;;;;;;;;;5092746;28;20449;-58
2023/06/12 00:28:54;;;;;;;6.17;5.57;;;;;;;;;;5092776;28;20879;-58
2023/06/12 00:31:21;;;;;;;6.30;5.37;;;;;;;;;;5092625;28;20494;-58
2023/06/12 00:33:48;;;;;;;6.07;5.40;;;;;;;;;;5092936;28;20454;-58
2023/06/12 00:36:15;;;;;;;6.37;5.33;;;;;;;;;;5092716;28;20551;-58
2023/06/12 00:38:43;;;;;;;7.83;5.60;;;;;;;;;;5092597;28;20457;-57
2023/06/12 00:41:10;;;;;;;6.40;5.80;;;;;;;;;;5092725;28;20449;-58
2023/06/12 00:43:37;;;;;;;6.07;5.47;;;;;;;;;;5093014;28;20543;-58
2023/06/12 00:46:05;;;;;;;6.53;5.43;;;;;;;;;;5092396;28;20446;-57
2023/06/12 00:48:32;;;;;;;7.80;6.53;;;;;;;;;;5092659;28;20831;-58
2023/06/12 00:51:00;;;;;;;6.77;6.23;;;;;;;;;;5092654;28;20449;-57
2023/06/12 00:53:27;;;;;;;6.50;5.83;;;;;;;;;;5092685;28;20560;-57
2023/06/12 00:55:55;;;;;;;14.33;5.93;;;;;;;;;;5092233;28;20542;-58
2023/06/12 00:58:23;;;;;;;5.93;5.57;;;;;;;;;;5092499;28;20484;-57
2023/06/12 01:00:50;;;;;;;8.27;6.00;;;;;;;;;;5092628;28;20548;-58
2023/06/12 01:03:17;;;;;;;5.57;5.17;;;;;;;;;;5096303;28;20870;-58
2023/06/12 01:05:45;;;;;;;5.80;5.23;;;;;;;;;;5096099;28;20464;-59
2023/06/12 01:08:18;;;;;;;5.50;5.20;;;;;;;;;;5096129;28;20450;-58
2023/06/12 01:10:47;;;;;;;6.47;5.90;;;;;;;;;;5095966;28;21004;-58
2023/06/12 01:13:16;;;;;;;9.07;6.00;;;;;;;;;;5096132;28;20496;-58
2023/06/12 01:15:43;;;;;;;7.23;5.50;;;;;;;;;;5095788;28;21007;-59
2023/06/12 01:18:10;;;;;;;5.93;5.40;;;;;;;;;;5095933;28;20427;-58
2023/06/12 01:20:37;;;;;;;6.00;5.50;;;;;;;;;;5096100;28;20936;-58
2023/06/12 01:23:09;;;;;;;6.93;6.10;;;;;;;;;;5095767;28;20456;-58
2023/06/12 01:25:54;;;;;;;6.33;5.30;;;;;;;;;;5095746;28;20815;-58
2023/06/12 01:28:39;;;;;;;5.13;4.83;;;;;;;;;;5095805;28;20955;-58
2023/06/12 01:31:14;;;;;;;6.83;5.73;;;;;;;;;;5095391;28;20524;-58
2023/06/12 01:33:44;;;;;;;6.03;5.37;;;;;;;;;;5095512;28;20464;-59
2023/06/12 01:36:15;;;;;;;6.43;5.80;;;;;;;;;;5095302;28;20512;-58
2023/06/12 01:38:43;;;;;;;5.57;5.07;;;;;;;;;;5095588;28;20779;-59
2023/06/12 01:41:11;;;;;;;5.63;5.23;;;;;;;;;;5095329;28;21002;-59
2023/06/12 01:43:37;;;;;;;6.73;6.20;;;;;;;;;;5095227;28;20453;-58
2023/06/12 01:46:06;;;;;;;5.87;5.37;;;;;;;;;;5095091;28;20512;-58
2023/06/12 01:48:33;;;;;;;5.73;5.20;;;;;;;;;;5095028;28;20460;-58
2023/06/12 01:51:01;;;;;;;5.33;4.83;;;;;;;;;;5095211;28;20456;-58
2023/06/12 01:53:28;;;;;;;6.60;4.90;;;;;;;;;;5095156;28;20862;-59
2023/06/12 01:55:56;;;;;;;5.37;4.87;;;;;;;;;;5094726;28;20530;-58
2023/06/12 01:58:23;;;;;;;6.27;4.47;;;;;;;;;;5095053;28;20453;-58
2023/06/12 02:00:53;;;;;;;5.00;4.60;;;;;;;;;;5094807;28;20449;-59
2023/06/12 02:03:20;;;;;;;5.40;4.43;;;;;;;;;;5095030;28;20454;-58
2023/06/12 02:05:47;;;;;;;4.93;4.50;;;;;;;;;;5094949;28;20798;-58
2023/06/12 02:08:15;;;;;;;7.53;4.90;;;;;;;;;;5094804;28;20445;-58
2023/06/12 02:10:42;;;;;;;5.77;5.27;;;;;;;;;;5094734;28;20482;-58
2023/06/12 02:13:09;;;;;;;5.20;4.80;;;;;;;;;;5094408;28;20536;-57
2023/06/12 02:15:36;;;;;;;4.70;4.40;;;;;;;;;;5094411;28;20896;-57
2023/06/12 02:18:03;;;;;;;7.67;5.70;;;;;;;;;;5094626;28;20448;-58
2023/06/12 02:20:30;;;;;;;5.50;4.47;;;;;;;;;;5094438;28;20457;-57
2023/06/12 02:22:57;;;;;;;7.20;4.87;;;;;;;;;;5094458;28;20455;-58
2023/06/12 02:25:25;;;;;;;5.70;5.30;;;;;;;;;;5094301;28;20455;-58
2023/06/12 02:27:52;;;;;;;8.90;5.60;;;;;;;;;;5094210;28;20549;-58
2023/06/12 02:30:19;;;;;;;5.70;4.63;;;;;;;;;;5094133;28;20863;-58
2023/06/12 02:32:49;;;;;;;9.33;5.30;;;;;;;;;;5094462;28;20448;-58
2023/06/12 02:35:16;;;;;;;7.33;4.57;;;;;;;;;;5094182;28;20491;-58
2023/06/12 02:37:43;;;;;;;5.93;5.10;;;;;;;;;;5094112;28;20815;-58
2023/06/12 02:40:10;;;;;;;5.17;4.67;;;;;;;;;;5094031;28;20539;-58
2023/06/12 02:42:38;;;;;;;5.40;4.67;;;;;;;;;;5094129;28;21031;-58
2023/06/12 02:45:06;;;;;;;6.83;6.00;;;;;;;;;;5094391;28;20524;-58
2023/06/12 02:47:33;;;;;;;5.33;4.67;;;;;;;;;;5094187;28;20475;-58
2023/06/12 02:49:59;;;;;;;5.20;4.73;;;;;;;;;;5093998;28;20543;-58
2023/06/12 02:52:26;;;;;;;6.30;4.90;;;;;;;;;;5093836;28;20801;-58
2023/06/12 02:54:53;;;;;;;5.70;5.20;;;;;;;;;;5093462;28;20563;-59
2023/06/12 02:57:20;;;;;;;7.20;4.70;;;;;;;;;;5093621;28;20453;-58
2023/06/12 02:59:48;;;;;;;5.40;4.90;;;;;;;;;;5093606;28;20539;-60
2023/06/12 03:02:15;;;;;;;5.33;4.87;;;;;;;;;;5093813;28;20857;-58
2023/06/12 03:04:42;;;;;;;7.17;5.37;;;;;;;;;;5093662;28;20544;-58
2023/06/12 03:07:12;;;;;;;5.57;4.83;;;;;;;;;;5093684;28;20895;-58
2023/06/12 03:09:39;;;;;;;7.20;4.97;;;;;;;;;;5093609;28;20936;-58
2023/06/12 03:12:06;;;;;;;7.43;4.23;;;;;;;;;;5093778;28;20415;-58
2023/06/12 03:14:33;;;;;;;5.20;4.70;;;;;;;;;;5093643;28;20444;-58
2023/06/12 03:17:01;;;;;;;7.07;4.43;;;;;;;;;;5093521;28;20548;-58
2023/06/12 03:19:28;;;;;;;11.90;5.13;;;;;;;;;;5093451;28;20548;-58
2023/06/12 03:21:55;;;;;;;5.97;4.67;;;;;;;;;;5093506;28;20864;-58
2023/06/12 03:24:24;;;;;;;5.50;4.37;;;;;;;;;;5092644;28;20448;-58
2023/06/12 03:26:50;;;;;;;6.70;4.67;;;;;;;;;;5093501;28;20542;-58
2023/06/12 03:29:17;;;;;;;6.50;4.90;;;;;;;;;;5093438;28;20449;-58
2023/06/12 03:31:44;;;;;;;15.17;5.13;;;;;;;;;;5093404;28;20448;-58
2023/06/12 03:34:15;;;;;;;7.30;4.90;;;;;;;;;;5093266;28;20453;-59
2023/06/12 03:36:43;;;;;;;7.53;5.53;;;;;;;;;;5093626;28;20479;-59
2023/06/12 03:39:10;;;;;;;7.90;4.97;;;;;;;;;;5093338;28;20782;-58
2023/06/12 03:41:37;;;;;;;6.90;4.80;;;;;;;;;;5093233;28;20445;-59
2023/06/12 03:44:04;;;;;;;7.10;5.00;;;;;;;;;;5093247;28;20610;-58
2023/06/12 03:46:32;;;;;;;6.63;4.70;;;;;;;;;;5093029;28;20887;-58
2023/06/12 03:48:59;;;;;;;8.03;5.20;;;;;;;;;;5093089;28;20815;-58
2023/06/12 03:51:27;;;;;;;6.77;5.70;;;;;;;;;;5092949;28;20480;-58
2023/06/12 03:53:54;;;;;;;5.50;5.00;;;;;;;;;;5092904;28;20539;-58
2023/06/12 03:56:21;;;;;;;6.03;5.30;;;;;;;;;;5092813;28;20521;-57
2023/06/12 03:58:49;;;;;;;7.80;5.43;;;;;;;;;;5093065;28;20426;-58
2023/06/12 04:01:16;;;;;;;12.80;5.20;;;;;;;;;;5093057;28;20423;-58
2023/06/12 04:03:44;;;;;;;9.10;4.80;;;;;;;;;;5092855;28;20484;-58
2023/06/12 04:06:11;;;;;;;8.13;5.53;;;;;;;;;;5093135;28;20460;-58
2023/06/12 04:08:39;;;;;;;9.03;5.40;;;;;;;;;;5093142;28;20455;-58
2023/06/12 04:11:09;;;;;;;6.93;4.73;;;;;;;;;;5092943;28;20453;-58
2023/06/12 04:13:36;;;;;;;9.23;5.03;;;;;;;;;;5092974;28;20453;-58
2023/06/12 04:16:03;;;;;;;8.90;5.93;;;;;;;;;;5092590;28;20483;-58
2023/06/12 04:18:30;;;;;;;5.33;4.13;;;;;;;;;;5092781;28;20447;-58
2023/06/12 04:20:57;;;;;;;4.63;4.23;;;;;;;;;;5092908;28;20448;-58
2023/06/12 04:23:29;;;;;;;5.40;4.90;;;;;;;;;;5092883;28;20447;-58
2023/06/12 04:26:01;;;;;;;7.43;5.17;;;;;;;;;;5092864;28;20501;-58
2023/06/12 04:28:28;;;;;;;5.10;4.57;;;;;;;;;;5092621;28;20961;-58
2023/06/12 04:30:55;;;;;;;4.97;4.57;;;;;;;;;;5092672;28;20444;-59
2023/06/12 04:33:23;;;;;;;6.37;4.23;;;;;;;;;;5092880;28;20449;-58
2023/06/12 04:35:50;;;;;;;8.63;5.47;;;;;;;;;;5094295;28;20539;-58
2023/06/12 04:38:19;;;;;;;4.57;4.17;;;;;;;;;;5097012;28;20479;-58
2023/06/12 04:40:46;;;;;;;10.30;4.07;;;;;;;;;;5096781;28;20851;-59
2023/06/12 04:43:18;;;;;;;4.23;3.80;;;;;;;;;;5096566;28;20452;-58
2023/06/12 04:45:46;;;;;;;7.30;3.83;;;;;;;;;;5096777;28;20534;-58
2023/06/12 04:48:13;;;;;;;5.97;4.40;;;;;;;;;;5096832;28;20947;-58
2023/06/12 04:50:40;;;;;;;4.33;3.97;;;;;;;;;;5096547;28;20453;-60
2023/06/12 04:53:07;;;;;;;4.77;4.37;;;;;;;;;;5096327;28;20426;-59
2023/06/12 04:55:34;;;;;;;4.33;3.90;;;;;;;;;;5096004;28;20564;-58
2023/06/12 04:58:01;;;;;;;4.00;3.60;;;;;;;;;;5096095;28;20458;-59
2023/06/12 05:00:30;;;;;;;4.37;3.97;;;;;;;;;;5096620;28;20452;-58
2023/06/12 05:02:58;;;;;;;5.00;4.00;;;;;;;;;;5096310;28;20459;-59
2023/06/12 05:05:27;;;;;;;4.23;3.83;;;;;;;;;;5096239;28;20452;-59
2023/06/12 05:07:54;;;;;;;4.57;4.17;;;;;;;;;;5095967;28;20455;-59
2023/06/12 05:10:21;;;;;;;4.53;3.80;;;;;;;;;;5095990;28;20454;-59
2023/06/12 05:12:48;;;;;;;3.63;3.40;;;;;;;;;;5096031;28;20448;-59
2023/06/12 05:15:15;;;;;;;4.27;3.53;;;;;;;;;;5095984;28;20448;-58
2023/06/12 05:17:43;;;;;;;5.63;4.33;;;;;;;;;;5095938;28;20807;-58
2023/06/12 05:20:10;;;;;;;6.43;4.20;;;;;;;;;;5095919;28;20421;-58
2023/06/12 05:22:37;;;;;;;5.10;3.53;;;;;;;;;;5095902;28;20815;-58
2023/06/12 05:25:05;;;;;;;3.60;3.30;;;;;;;;;;5095909;28;20535;-58
2023/06/12 05:27:31;;;;;;;4.57;4.07;;;;;;;;;;5096050;28;20448;-58
2023/06/12 05:29:58;;;;;;;5.10;3.80;;;;;;;;;;5095930;28;20539;-58
2023/06/12 05:32:25;;;;;;;10.17;4.10;;;;;;;;;;5095607;28;20802;-58
2023/06/12 05:34:53;;;;;;;5.90;3.67;;;;;;;;;;5095689;28;20423;-58
2023/06/12 05:37:32;;;;;;;5.20;3.40;;;;;;;;;;5095534;28;20486;-59
2023/06/12 05:39:59;;;;;;;4.47;3.87;;;;;;;;;;5095714;28;20788;-59
2023/06/12 05:42:26;;;;;;;4.43;4.03;;;;;;;;;;5095503;28;20808;-59
2023/06/12 05:44:53;;;;;;;6.10;3.97;;;;;;;;;;5095473;28;20540;-59
2023/06/12 05:47:20;;;;;;;5.87;4.37;;;;;;;;;;5094478;28;20493;-59
2023/06/12 05:49:47;;;;;;;5.53;3.83;;;;;;;;;;5095200;28;20534;-59
2023/06/12 05:52:15;;;;;;;7.00;4.57;;;;;;;;;;5095091;28;20515;-59
2023/06/12 05:54:42;;;;;;;7.53;3.80;;;;;;;;;;5095218;28;20477;-59
2023/06/12 05:57:09;;;;;;;10.23;4.40;;;;;;;;;;5095251;28;20491;-59
2023/06/12 05:59:35;;;;;;;4.77;3.70;;;;;;;;;;5095271;28;20475;-59
2023/06/12 06:02:02;;;;;;;4.57;4.17;;;;;;;;;;5095144;28;20441;-59
2023/06/12 06:04:29;;;;;;;4.20;3.80;;;;;;;;;;5094949;28;20453;-59
2023/06/12 06:06:56;;;;;;;5.80;4.23;;;;;;;;;;5094679;28;20483;-59
2023/06/12 06:09:26;;;;;;;4.07;3.77;;;;;;;;;;5095068;28;20531;-59
2023/06/12 06:11:53;;;;;;;8.00;4.00;;;;;;;;;;5094814;28;20454;-59
2023/06/12 06:14:20;;;;;;;4.63;3.53;;;;;;;;;;5095136;28;20804;-59
2023/06/12 06:16:47;;;;;;;4.67;4.10;;;;;;;;;;5094730;28;21010;-59
2023/06/12 06:19:14;;;;;;;4.30;3.83;;;;;;;;;;5094653;28;20548;-59
2023/06/12 06:21:41;;;;;;;4.00;3.60;;;;;;;;;;5094788;28;20457;-59
2023/06/12 06:24:08;;;;;;;7.47;4.93;;;;;;;;;;5094670;28;20530;-59
2023/06/12 06:26:36;;;;;;;4.03;3.73;;;;;;;;;;5094532;28;20885;-58
2023/06/12 06:29:03;;;;;;;4.10;3.80;;;;;;;;;;5094525;28;20451;-57
2023/06/12 06:31:30;;;;;;;4.37;3.97;;;;;;;;;;5094618;28;20450;-57
2023/06/12 06:33:57;;;;;;;6.50;4.17;;;;;;;;;;5094355;28;20453;-57
2023/06/12 06:36:24;;;;;;;4.93;3.50;;;;;;;;;;5094650;28;20451;-58
2023/06/12 06:38:51;;;;;;;4.53;4.13;;;;;;;;;;5094203;28;20935;-58
2023/06/12 06:41:18;;;;;;;7.10;4.20;;;;;;;;;;5094418;28;20502;-58
2023/06/12 06:43:46;;;;;;;6.47;4.57;;;;;;;;;;5087824;28;20890;-58
2023/06/12 06:46:13;;;;;;;4.33;3.93;;;;;;;;;;5092707;28;20885;-59
2023/06/12 06:48:40;;;;;;;6.63;4.03;;;;;;;;;;5094022;28;20454;-58
2023/06/12 06:51:07;;;;;;;4.87;3.97;;;;;;;;;;5091780;28;20504;-57
2023/06/12 06:53:34;;;;;;;5.13;4.50;;;;;;;;;;5094112;28;20449;-58
2023/06/12 06:56:01;;;;;;;5.07;4.00;;;;;;;;;;5093701;28;20483;-58
2023/06/12 06:58:28;;;;;;;4.53;4.13;;;;;;;;;;5093395;28;20450;-58
2023/06/12 07:00:57;;;;;;;6.03;3.90;;;;;;;;;;5093374;28;20541;-59
2023/06/12 07:03:24;;;;;;;11.70;4.83;;;;;;;;;;5094039;28;20450;-59
2023/06/12 07:05:51;;;;;;;3.97;3.67;;;;;;;;;;5093497;28;20953;-59
2023/06/12 07:08:18;;;;;;;6.07;4.73;;;;;;;;;;5093828;28;20458;-56
2023/06/12 07:10:45;;;;;;;4.20;3.80;;;;;;;;;;5093718;28;20957;-55
2023/06/12 07:13:13;;;;;;;3.93;3.63;;;;;;;;;;5093348;28;20439;-57
2023/06/12 07:15:40;;;;;;;10.67;4.00;;;;;;;;;;5093433;28;20458;-56
2023/06/12 07:18:09;;;;;;;5.80;4.30;;;;;;;;;;5093597;28;20489;-59
2023/06/12 07:20:36;;;;;;;9.70;4.57;;;;;;;;;;5093379;28;20453;-58
2023/06/12 07:23:03;;;;;;;4.27;3.83;;;;;;;;;;5093379;28;20972;-57
2023/06/12 07:25:30;;;;;;;4.20;3.80;;;;;;;;;;5093342;28;20486;-57
2023/06/12 07:27:57;;;;;;;4.47;3.90;;;;;;;;;;5093410;28;20554;-59
2023/06/12 07:30:24;;;;;;;3.83;3.43;;;;;;;;;;5093676;28;20632;-55
2023/06/12 07:32:51;;;;;;;4.60;3.77;;;;;;;;;;5093524;28;20443;-56
2023/06/12 07:35:20;;;;;;;4.13;3.83;;;;;;;;;;5093325;28;20475;-59
2023/06/12 07:37:46;;;;;;;4.13;3.83;;;;;;;;;;5093032;28;20550;-55
2023/06/12 07:40:14;;;;;;;3.53;3.33;;;;;;;;;;5093066;28;20458;-56
2023/06/12 07:42:42;;;;;;;4.53;4.10;;;;;;;;;;5093161;28;20478;-59
2023/06/12 07:45:10;;;;;;;3.83;3.57;;;;;;;;;;5093084;28;20488;-57
2023/06/12 07:47:37;;;;;;;16.00;5.93;;;;;;;;;;5092996;28;20443;-59
2023/06/12 07:50:04;;;;;;;3.60;3.30;;;;;;;;;;5092980;28;20447;-60
2023/06/12 07:52:32;;;;;;;4.27;3.43;;;;;;;;;;5092836;28;20451;-60
2023/06/12 07:54:59;;;;;;;5.10;3.77;;;;;;;;;;5092743;28;20540;-60
2023/06/12 07:57:28;;;;;;;4.00;3.60;;;;;;;;;;5093003;28;20888;-59
2023/06/12 07:59:55;;;;;;;6.40;3.50;;;;;;;;;;5093084;28;20687;-55
2023/06/12 08:02:22;;;;;;;5.00;3.27;;;;;;;;;;5093008;28;20853;-56
2023/06/12 08:04:49;;;;;;;5.10;4.17;;;;;;;;;;5093024;28;20447;-56
2023/06/12 08:07:16;;;;;;;7.50;3.53;;;;;;;;;;5092926;28;20451;-57
2023/06/12 08:09:44;;;;;;;6.43;3.80;;;;;;;;;;5093142;28;20800;-59
2023/06/12 08:12:12;;;;;;;5.27;3.80;;;;;;;;;;5099442;28;20934;-59
2023/06/12 08:14:39;;;;;;;3.90;3.70;;;;;;;;;;5099375;28;20442;-57
2023/06/12 08:17:06;;;;;;;6.43;3.40;;;;;;;;;;5099359;28;20493;-58
2023/06/12 08:19:34;;;;;;;3.60;3.10;;;;;;;;;;5099519;28;20454;-59
2023/06/12 08:22:01;;;;;;;5.80;3.33;;;;;;;;;;5099417;28;20451;-58
2023/06/12 08:24:30;;;;;;;4.23;3.30;;;;;;;;;;5099462;28;20812;-58
2023/06/12 08:26:58;;;;;;;5.60;3.23;;;;;;;;;;5099382;28;20465;-59
2023/06/12 08:29:25;;;;;;;3.40;3.10;;;;;;;;;;5099337;28;20845;-58
2023/06/12 08:31:52;;;;;;;6.10;3.93;;;;;;;;;;5099406;28;20443;-59
2023/06/12 08:34:20;;;;;;;3.77;3.30;;;;;;;;;;5099607;28;20539;-58
2023/06/12 08:36:47;;;;;;;5.40;3.33;;;;;;;;;;5099035;28;20478;-58
2023/06/12 08:39:14;;;;;;;3.27;2.90;;;;;;;;;;5099394;28;20545;-57
2023/06/12 08:41:44;;;;;;;3.63;3.33;;;;;;;;;;5099435;28;20447;-58
2023/06/12 08:44:13;;;;;;;5.23;3.30;;;;;;;;;;5099101;28;20457;-58
2023/06/12 08:46:40;;;;;;;3.70;3.40;;;;;;;;;;5099085;28;20451;-58
2023/06/12 08:49:09;;;;;;;3.37;3.07;;;;;;;;;;5099017;28;20438;-59
2023/06/12 08:51:36;;;;;;;3.57;3.07;;;;;;;;;;5099071;28;20870;-59
2023/06/12 08:54:04;;;;;;;10.77;4.10;;;;;;;;;;5099388;28;20456;-58
2023/06/12 08:56:31;;;;;;;3.60;3.30;;;;;;;;;;5098615;28;20952;-60
2023/06/12 08:58:58;;;;;;;5.00;3.70;;;;;;;;;;5099184;28;20878;-59
2023/06/12 09:01:28;;;;;;;4.30;3.97;;;;;;;;;;5098975;28;20810;-59
2023/06/12 09:03:58;;;;;;;3.83;3.57;;;;;;;;;;5098931;28;20529;-59
2023/06/12 09:06:26;;;;;;;3.57;3.27;;;;;;;;;;5099486;28;20447;-58
2023/06/12 09:08:53;;;;;;;4.10;3.60;;;;;;;;;;5099153;28;20860;-58
2023/06/12 09:11:20;;;;;;;3.73;3.43;;;;;;;;;;5099016;28;20485;-58
2023/06/12 09:13:51;;;;;;;3.93;3.13;;;;;;;;;;5098991;28;20453;-59
2023/06/12 09:16:18;;;;;;;4.50;4.00;;;;;;;;;;5098763;28;20457;-58
2023/06/12 09:18:50;;;;;;;4.30;4.00;;;;;;;;;;5098806;28;20995;-58
2023/06/12 09:21:17;;;;;;;4.43;3.50;;;;;;;;;;5098632;28;20465;-58
2023/06/12 09:23:45;;;;;;;4.00;3.70;;;;;;;;;;5094928;28;20449;-57
2023/06/12 09:26:15;;;;;;;4.27;3.97;;;;;;;;;;5095424;28;20500;-58
2023/06/12 09:28:43;;;;;;;4.83;4.40;;;;;;;;;;5095887;28;20454;-57
2023/06/12 09:31:10;;;;;;;8.73;4.00;;;;;;;;;;5095562;28;20439;-58
2023/06/12 09:33:39;;;;;;;5.70;3.80;;;;;;;;;;5095459;28;20539;-58
2023/06/12 09:36:07;;;;;;;3.70;3.40;;;;;;;;;;5095573;28;20479;-57
2023/06/12 09:38:35;;;;;;;3.80;3.50;;;;;;;;;;5095243;28;20475;-58
2023/06/12 09:41:03;;;;;;;3.60;3.30;;;;;;;;;;5095608;28;20453;-59
2023/06/12 09:43:30;;;;;;;4.17;3.40;;;;;;;;;;5095172;28;20451;-56
2023/06/12 09:45:57;;;;;;;4.03;3.60;;;;;;;;;;5095436;28;20447;-60
2023/06/12 09:48:24;;;;;;;3.63;3.30;;;;;;;;;;5095375;28;20447;-58
2023/06/12 09:50:52;;;;;;;4.70;3.77;;;;;;;;;;5095287;28;20537;-60
2023/06/12 09:53:22;;;;;;;3.80;3.60;;;;;;;;;;5095042;28;20447;-59
2023/06/12 09:55:49;;;;;;;7.07;3.83;;;;;;;;;;5094932;28;20566;-59
2023/06/12 09:58:16;;;;;;;3.60;3.30;;;;;;;;;;5094845;28;20572;-58
2023/06/12 10:00:43;;;;;;;4.90;3.50;;;;;;;;;;5095116;28;20532;-59
2023/06/12 10:03:13;;;;;;;5.13;3.80;;;;;;;;;;5094996;28;20599;-60
2023/06/12 10:05:42;;;;;;;11.07;3.67;;;;;;;;;;5094993;28;20458;-60
2023/06/12 10:08:09;;;;;;;4.83;4.10;;;;;;;;;;5094835;28;20451;-60
2023/06/12 10:10:38;;;;;;;7.33;3.70;;;;;;;;;;5094855;28;20455;-60
2023/06/12 10:13:05;;;;;;;3.87;3.40;;;;;;;;;;5094983;28;20546;-60
2023/06/12 10:15:33;;;;;;;4.13;3.53;;;;;;;;;;5094750;28;20454;-60
2023/06/12 10:18:00;;;;;;;3.47;3.17;;;;;;;;;;5094587;28;20522;-59
2023/06/12 10:20:27;;;;;;;3.37;3.07;;;;;;;;;;5094961;28;20597;-59
2023/06/12 10:22:55;;;;;;;3.80;3.60;;;;;;;;;;5094648;28;20989;-59
2023/06/12 10:25:22;;;;;;;3.90;3.60;;;;;;;;;;5094799;28;20469;-56
2023/06/12 10:27:53;;;;;;;3.27;2.97;;;;;;;;;;5094623;28;20458;-58
2023/06/12 10:30:20;;;;;;;5.03;3.53;;;;;;;;;;5094591;28;20929;-57
2023/06/12 10:32:47;;;;;;;3.47;3.17;;;;;;;;;;5094500;28;20453;-58
2023/06/12 10:35:14;;;;;;;3.80;3.60;;;;;;;;;;5094416;28;20512;-55
2023/06/12 10:37:43;;;;;;;4.60;3.63;;;;;;;;;;5094180;28;20823;-57
2023/06/12 10:40:11;;;;;;;3.90;3.60;;;;;;;;;;5094492;28;20961;-60
2023/06/12 10:42:45;;;;;;;4.30;3.93;;;;;;;;;;5094338;28;20529;-61
2023/06/12 10:45:21;;;;;;;3.83;3.63;;;;;;;;;;5094120;28;20965;-60
2023/06/12 10:48:11;;;;;;;6.10;3.90;;;;;;;;;;5094119;28;20547;-59
2023/06/12 10:50:39;;;;;;;5.50;3.63;;;;;;;;;;5093296;28;20886;-60
2023/06/12 10:53:07;;;;;;;5.63;3.67;;;;;;;;;;5094274;28;20868;-59
2023/06/12 10:55:35;;;;;;;4.63;3.80;;;;;;;;;;5094144;28;21049;-59
2023/06/12 10:58:03;;;;;;;4.10;3.90;;;;;;;;;;5093771;28;20986;-59
2023/06/12 11:00:32;;;;;;;4.33;3.47;;;;;;;;;;5093890;28;20455;-59
2023/06/12 11:03:00;;;;;;;5.20;4.17;;;;;;;;;;5094036;28;20447;-59
2023/06/12 11:05:27;;;;;;;4.57;4.17;;;;;;;;;;5092676;28;20475;-60
2023/06/12 11:07:57;;;;;;;5.07;3.50;;;;;;;;;;5093959;28;20541;-61
2023/06/12 11:10:25;;;;;;;5.60;4.27;;;;;;;;;;5088724;28;20534;-60
2023/06/12 11:12:52;;;;;;;4.80;3.70;;;;;;;;;;5093648;28;20446;-60
2023/06/12 11:15:19;;;;;;;4.63;3.87;;;;;;;;;;5093574;28;20492;-59
2023/06/12 11:17:47;;;;;;;4.47;4.03;;;;;;;;;;5093586;28;20874;-58
2023/06/12 11:20:16;;;;;;;5.80;3.90;;;;;;;;;;5093464;28;20541;-59
2023/06/12 11:22:43;;;;;;;6.30;4.70;;;;;;;;;;5093235;28;20490;-59
2023/06/12 11:25:10;;;;;;;4.33;3.67;;;;;;;;;;5093311;28;20451;-58
2023/06/12 11:27:37;;;;;;;5.20;3.27;;;;;;;;;;5093208;28;20693;-59
2023/06/12 11:30:08;;;;;;;3.40;3.07;;;;;;;;;;5093570;28;20455;-60
2023/06/12 11:32:35;;;;;;;3.67;3.47;;;;;;;;;;5093405;28;20455;-60
2023/06/12 11:35:04;;;;;;;3.40;3.20;;;;;;;;;;5093167;28;20538;-59
2023/06/12 11:37:32;;;;;;;3.93;3.60;;;;;;;;;;5093041;28;20494;-60
2023/06/12 11:40:08;;;;;;;4.73;3.63;;;;;;;;;;5091913;28;20455;-59
2023/06/12 11:42:35;;;;;;;4.23;3.93;;;;;;;;;;5090529;28;21007;-59
2023/06/12 11:45:02;;;;;;;3.83;3.53;;;;;;;;;;5090438;28;20447;-60
2023/06/12 11:47:29;;;;;;;4.87;4.27;;;;;;;;;;5093053;28;20459;-59
2023/06/12 11:49:56;;;;;;;6.80;3.93;;;;;;;;;;5090827;28;20803;-59
2023/06/12 11:52:25;;;;;;;3.90;3.50;;;;;;;;;;5092967;28;20546;-59
2023/06/12 11:54:58;;;;;;;4.70;4.10;;;;;;;;;;5092384;28;20560;-59
2023/06/12 11:57:27;;;;;;;3.87;3.53;;;;;;;;;;5093132;28;20486;-63
2023/06/12 11:59:56;;;;;;;4.37;3.97;;;;;;;;;;5096883;28;20450;-61
2023/06/12 12:02:29;;;;;;;3.30;3.10;;;;;;;;;;5101089;28;20444;-60
2023/06/12 12:04:56;;;;;;;3.73;3.53;;;;;;;;;;5099910;28;20449;-61
2023/06/12 12:07:24;;;;;;;3.57;3.30;;;;;;;;;;5099836;28;20542;-60
2023/06/12 12:10:02;;;;;;;3.37;3.07;;;;;;;;;;5096947;28;20454;-61
2023/06/12 12:12:38;;;;;;;5.60;3.55;;;;;;;;;;5091839;28;20481;-59
2023/06/12 12:15:06;;;;;;;3.80;3.40;;;;;;;;;;5107142;28;20647;-61
2023/06/12 12:17:33;;;;;;;8.60;4.17;;;;;;;;;;5095767;28;20447;-59
2023/06/12 12:20:04;;;;;;;3.67;3.33;;;;;;;;;;5107533;28;20443;-59
2023/06/12 12:22:32;;;;;;;3.90;3.53;;;;;;;;;;5102284;28;20975;-58
2023/06/12 12:25:00;;;;;;;6.33;3.73;;;;;;;;;;5099493;28;20449;-59
2023/06/12 12:27:27;;;;;;;6.20;3.60;;;;;;;;;;5109046;28;20446;-58
2023/06/12 12:29:54;;;;;;;3.47;3.17;;;;;;;;;;5096852;28;20446;-59
2023/06/12 12:32:21;;;;;;;3.43;3.23;;;;;;;;;;5104704;28;20608;-57
2023/06/12 12:34:48;;;;;;;3.70;3.40;;;;;;;;;;5104268;28;20825;-59
2023/06/12 12:37:15;;;;;;;5.50;3.80;;;;;;;;;;5097016;28;20508;-59
2023/06/12 12:39:43;;;;;;;4.00;3.70;;;;;;;;;;5108684;28;20992;-58
2023/06/12 12:42:10;;;;;;;4.53;3.30;;;;;;;;;;5095247;28;20934;-58
2023/06/12 12:44:37;;;;;;;9.70;3.80;;;;;;;;;;5091994;28;20972;-59
2023/06/12 12:47:04;;;;;;;21.23;4.30;;;;;;;;;;5091924;28;20541;-59
2023/06/12 12:49:31;;;;;;;6.07;3.60;;;;;;;;;;5092478;28;20448;-58
2023/06/12 12:51:58;;;;;;;3.70;3.40;;;;;;;;;;5092505;28;20558;-58
2023/06/12 12:54:25;;;;;;;3.80;3.50;;;;;;;;;;5092303;28;20516;-59
2023/06/12 12:56:56;;;;;;;4.17;3.87;;;;;;;;;;5091061;28;20446;-59
2023/06/12 12:59:23;;;;;;;3.73;3.43;;;;;;;;;;5095552;28;20474;-59
2023/06/12 13:01:50;;;;;;;3.50;3.30;;;;;;;;;;5095815;28;20451;-59
2023/06/12 13:04:17;;;;;;;4.80;3.60;;;;;;;;;;5095837;28;20449;-58
2023/06/12 13:06:45;;;;;;;9.37;4.30;;;;;;;;;;5095734;28;20877;-59
2023/06/12 13:09:12;;;;;;;4.93;3.03;;;;;;;;;;5096096;28;20795;-59
2023/06/12 13:11:39;;;;;;;9.50;4.57;;;;;;;;;;5093709;28;20504;-59
2023/06/12 13:14:07;;;;;;;3.90;2.80;;;;;;;;;;5095846;28;20773;-58
2023/06/12 13:16:34;;;;;;;3.30;3.10;;;;;;;;;;5096100;28;20946;-59
2023/06/12 13:19:01;;;;;;;11.80;3.80;;;;;;;;;;5095918;28;21083;-59
2023/06/12 13:21:28;;;;;;;7.53;3.30;;;;;;;;;;5095931;28;20485;-59
2023/06/12 13:23:55;;;;;;;3.60;3.20;;;;;;;;;;5095871;28;20473;-59
2023/06/12 13:26:23;;;;;;;4.40;3.40;;;;;;;;;;5095363;28;20494;-58
2023/06/12 13:28:50;;;;;;;5.57;3.53;;;;;;;;;;5095763;28;20567;-58
2023/06/12 13:31:19;;;;;;;5.17;3.63;;;;;;;;;;5095804;28;20582;-58
2023/06/12 13:33:46;;;;;;;8.50;3.63;;;;;;;;;;5095709;28;20541;-58
2023/06/12 13:36:13;;;;;;;3.53;3.33;;;;;;;;;;5095594;28;20821;-58
2023/06/12 13:38:41;;;;;;;4.30;3.90;;;;;;;;;;5095722;28;20500;-58
2023/06/12 13:41:08;;;;;;;3.73;3.50;;;;;;;;;;5095785;28;20512;-58
2023/06/12 13:43:35;;;;;;;3.47;3.27;;;;;;;;;;5095608;28;20447;-58
2023/06/12 13:46:02;;;;;;;4.23;3.10;;;;;;;;;;5095435;28;20541;-57
2023/06/12 13:48:30;;;;;;;3.47;3.20;;;;;;;;;;5095377;28;20454;-58
2023/06/12 13:50:58;;;;;;;4.13;3.50;;;;;;;;;;5095327;28;20538;-58
2023/06/12 13:53:26;;;;;;;5.77;3.83;;;;;;;;;;5095166;28;20500;-58
2023/06/12 13:55:53;;;;;;;4.27;3.87;;;;;;;;;;5095266;28;20574;-58
2023/06/12 13:58:21;;;;;;;5.10;3.17;;;;;;;;;;5095128;28;20466;-58
2023/06/12 14:00:48;;;;;;;3.20;3.00;;;;;;;;;;5095504;28;20857;-58
2023/06/12 14:03:15;;;;;;;3.40;3.20;;;;;;;;;;5095262;28;20446;-58
2023/06/12 14:05:44;;;;;;;3.30;3.00;;;;;;;;;;5095061;28;20540;-58
2023/06/12 14:08:11;;;;;;;5.73;3.33;;;;;;;;;;5094274;28;20538;-58
2023/06/12 14:10:39;;;;;;;4.53;3.00;;;;;;;;;;5095138;28;20878;-58
2023/06/12 14:13:05;;;;;;;5.07;4.63;;;;;;;;;;5094975;28;20443;-58
2023/06/12 14:15:32;;;;;;;5.70;3.20;;;;;;;;;;5094864;28;20454;-57
2023/06/12 14:18:03;;;;;;;3.90;3.07;;;;;;;;;;5094787;28;20946;-58
2023/06/12 14:20:29;;;;;;;3.23;3.03;;;;;;;;;;5094625;28;20538;-58
2023/06/12 14:22:59;;;;;;;3.70;3.50;;;;;;;;;;5094828;28;20537;-58
2023/06/12 14:25:26;;;;;;;4.43;3.50;;;;;;;;;;5094742;28;20497;-58
2023/06/12 14:27:53;;;;;;;3.73;3.43;;;;;;;;;;5094520;28;21001;-58
2023/06/12 14:30:20;;;;;;;4.53;3.30;;;;;;;;;;5094495;28;20450;-58
2023/06/12 14:32:47;;;;;;;5.10;3.53;;;;;;;;;;5094433;28;20447;-58
2023/06/12 14:35:14;;;;;;;4.30;3.27;;;;;;;;;;5094320;28;20538;-58
2023/06/12 14:37:41;;;;;;;4.10;3.70;;;;;;;;;;5094757;28;20537;-58
2023/06/12 14:40:10;;;;;;;3.33;3.13;;;;;;;;;;5094362;28;20525;-58
2023/06/12 14:42:37;;;;;;;4.37;3.87;;;;;;;;;;5094270;28;20977;-58
2023/06/12 14:45:04;;;;;;;5.47;3.27;;;;;;;;;;5094316;28;20481;-58
2023/06/12 14:47:31;;;;;;;3.73;3.43;;;;;;;;;;5093998;28;20443;-58